FW3098 Weather Reports


Display with metric or nautical units.
time (UTC)temp
F
wind
direction
speed
MPH
gust
MPH
rain 1hr
in
rain 24hr
in
rain mn
in
humidity
%
barometer
mb
20210928073047 48 163 3.0 8.0 0.06 0.37 0.05 71 1009.9
20210928071535 48 177 2.0 7.0 0.04 0.34 0.02 71 1010.0
20210928070040 48 190 2.0 10.0 0.02 0.32 0.00 71 1009.7
20210928064528 48 171 3.0 6.0 0.02 0.31 0.31 70 1009.7
20210928063025 48 192 1.0 3.0 0.02 0.31 0.31 70 1009.2
20210928061520 48 134 0.0 7.0 0.02 0.30 0.30 70 1008.5
20210928060027 49 146 2.0 7.0 0.03 0.30 0.30 70 1008.5
20210928054532 49 144 2.0 7.0 0.03 0.28 0.28 69 1009.2
20210928053013 49 192 1.0 2.0 0.05 0.28 0.28 69 1009.2
20210928051535 49 201 1.0 3.0 0.06 0.28 0.28 69 1009.4
20210928050022 49 203 0.0 3.0 0.06 0.27 0.27 69 1009.4
20210928044536 49 221 2.0 4.0 0.06 0.26 0.26 69 1009.1
20210928043007 50 213 3.0 7.0 0.06 0.24 0.24 69 1009.7
20210928041509 50 187 1.0 5.0 0.06 0.22 0.22 68 1009.2
20210928040001 50 201 2.0 4.0 0.06 0.21 0.21 68 1009.1
20210928034636 50 150 0.0 2.0 0.05 0.20 0.20 68 1008.1
20210928033414 50 166 1.0 4.0 0.06 0.18 0.18 68 1008.5
20210928031631 50 205 1.0 3.0 0.05 0.16 0.16 68 1008.1
20210928030135 50 205 0.0 2.0 0.06 0.15 0.15 68 1007.3
20210928024651 50 205 0.0 3.0 0.09 0.15 0.15 68 1008.1
20210928023124 50 159 2.0 7.0 0.07 0.12 0.12 68 1008.8
20210928021620 50 213 0.0 3.0 0.06 0.11 0.11 68 1007.2
20210928020205 51 247 2.0 6.0 0.04 0.09 0.09 68 1007.4
20210928014556 50 201 2.0 3.0 0.01 0.06 0.06 68 1006.8
20210928013137 51 74 1.0 6.0 0.00 0.05 0.05 68 1004.8
20210928011600 51 139 0.0 4.0 0.04 0.05 0.05 68 1005.7
20210928010100 51 69 1.0 3.0 0.05 0.05 0.05 67 1006.2
20210928004756 51 20 0.0 3.0 0.05 0.05 0.05 66 1006.4
20210928003119 52 277 2.0 8.0 0.05 0.05 0.05 63 1006.7
20210928001544 54 316 5.0 14.0 0.01 0.01 0.01 57 1006.5
20210928000037 57 285 6.0 20.0 0.00 0.00 0.00 51 1005.6
20210927234533 59 273 6.0 18.0 0.00 0.00 0.00 49 1005.9
20210927233058 62 302 5.0 10.0 0.00 0.00 0.00 48 1005.0
20210927231528 65 325 4.0 10.0 0.00 0.00 0.00 43 1004.6
20210927230036 66 300 2.0 9.0 0.00 0.00 0.00 42 1004.5
20210927224555 68 198 2.0 8.0 0.00 0.00 0.00 43 1004.3
20210927223036 67 216 2.0 6.0 0.00 0.00 0.00 44 1004.5
20210927221527 66 202 3.0 5.0 0.00 0.00 0.00 46 1004.6
20210927220038 67 157 1.0 5.0 0.00 0.00 0.00 49 1004.6
20210927214610 66 228 1.0 4.0 0.00 0.00 0.00 46 1005.1
20210927213029 66 196 2.0 8.0 0.00 0.00 0.00 46 1004.9
20210927211522 67 224 3.0 9.0 0.00 0.00 0.00 47 1005.0
20210927210022 69 205 1.0 8.0 0.00 0.00 0.00 37 1005.1
20210927204524 71 142 2.0 15.0 0.00 0.00 0.00 35 1005.1
20210927203023 69 223 2.0 9.0 0.00 0.00 0.00 38 1005.6
20210927201520 68 211 2.0 8.0 0.00 0.00 0.00 39 1005.9
20210927200013 66 205 1.0 5.0 0.00 0.00 0.00 44 1006.1
20210927194510 66 187 2.0 7.0 0.00 0.00 0.00 43 1006.4
20210927193025 67 189 2.0 7.0 0.00 0.00 0.00 41 1006.5
20210927191508 67 189 3.0 6.0 0.00 0.00 0.00 40 1006.6
20210927190008 68 184 3.0 10.0 0.00 0.00 0.00 39 1006.7
20210927184512 68 188 3.0 7.0 0.00 0.00 0.00 39 1006.8
20210927183008 67 185 3.0 7.0 0.00 0.00 0.00 42 1006.9
20210927181503 66 250 2.0 6.0 0.00 0.00 0.00 41 1007.0
20210927174607 66 159 1.0 5.0 0.00 0.00 0.00 43 1007.3
20210927173208 65 159 2.0 9.0 0.00 0.00 0.00 44 1007.3
20210927171644 65 207 3.0 10.0 0.00 0.00 0.00 43 1007.4
20210927170126 63 163 2.0 7.0 0.00 0.00 0.00 47 1007.4
20210927164615 62 198 4.0 8.0 0.00 0.00 0.00 48 1007.2
20210927163223 62 187 3.0 5.0 0.00 0.00 0.00 47 1007.2
20210927161641 62 188 2.0 14.0 0.00 0.00 0.00 47 1007.3
20210927160118 62 160 4.0 8.0 0.00 0.00 0.00 47 1007.1
20210927154630 62 173 4.0 9.0 0.00 0.00 0.00 48 1007.0
20210927153114 61 204 3.0 7.0 0.00 0.00 0.00 48 1006.9
20210927151611 61 178 3.0 7.0 0.00 0.00 0.00 49 1006.5
20210927150117 60 199 3.0 7.0 0.00 0.00 0.00 49 1006.5
20210927144640 60 175 2.0 4.0 0.00 0.00 0.00 48 1006.4
20210927143110 60 186 2.0 5.0 0.00 0.00 0.00 48 1006.2
20210927141546 60 189 2.0 4.0 0.00 0.00 0.00 48 1006.4
20210927140110 60 227 2.0 5.0 0.00 0.00 0.00 47 1006.2
20210927134540 60 197 2.0 5.0 0.00 0.00 0.00 46 1006.2
20210927133044 60 181 2.0 6.0 0.00 0.00 0.00 46 1005.9
20210927131547 59 157 2.0 5.0 0.00 0.00 0.00 47 1005.8
20210927130050 59 193 2.0 4.0 0.00 0.00 0.00 47 1006.1
20210927124541 59 200 2.0 6.0 0.00 0.00 0.00 47 1006.0
20210927123053 59 192 2.0 5.0 0.00 0.00 0.00 46 1006.1
20210927121557 59 163 2.0 5.0 0.00 0.00 0.00 46 1005.8
20210927120058 59 186 2.0 4.0 0.00 0.00 0.00 45 1006.2
20210927114522 58 186 1.0 3.0 0.00 0.00 0.00 45 1006.1
20210927113035 58 186 1.0 3.0 0.00 0.00 0.00 44 1006.3
20210927111529 58 186 0.0 3.0 0.00 0.00 0.00 44 1006.5
20210927110017 58 186 2.0 4.0 0.00 0.00 0.00 44 1006.4
20210927104540 59 188 1.0 3.0 0.00 0.00 0.00 43 1006.3
20210927103007 61 203 1.0 3.0 0.00 0.00 0.00 37 1006.5
20210927101508 62 206 1.0 4.0 0.00 0.00 0.00 31 1006.7
20210927100020 62 191 1.0 3.0 0.00 0.00 0.00 25 1006.6
20210927094812 61 227 0.0 4.0 0.00 0.00 0.00 25 1006.5
20210927093159 61 218 0.0 4.0 0.00 0.00 0.00 24 1006.4
20210927091619 61 215 0.0 4.0 0.00 0.00 0.00 23 1006.6
20210927090128 61 234 0.0 3.0 0.00 0.00 0.00 21 1006.7
20210927084626 61 190 0.0 0.0 0.00 0.00 0.00 22 1006.3
20210927083318 62 190 0.0 2.0 0.00 0.00 0.00 21 1006.1
20210927081705 62 190 1.0 3.0 0.00 0.00 0.00 21 1006.2
20210927080207 62 187 1.0 4.0 0.00 0.00 0.00 21 1006.0
20210927074658 62 175 1.0 4.0 0.00 0.00 0.00 20 1006.2